sensor_id;sensor_type;location;lat;lon;timestamp;P1;durP1;ratioP1;P2;durP2;ratioP2
61741;SDS011;47650;49.848;9.620;2024-02-14T00:01:05;13.98;;;9.57;;
61741;SDS011;47650;49.848;9.620;2024-02-14T00:03:34;16.85;;;10.38;;
61741;SDS011;47650;49.848;9.620;2024-02-14T00:06:00;13.68;;;9.93;;
61741;SDS011;47650;49.848;9.620;2024-02-14T00:08:26;12.52;;;9.60;;
61741;SDS011;47650;49.848;9.620;2024-02-14T00:10:52;15.45;;;9.05;;
61741;SDS011;47650;49.848;9.620;2024-02-14T00:13:17;13.52;;;9.13;;
61741;SDS011;47650;49.848;9.620;2024-02-14T00:15:44;13.38;;;9.20;;
61741;SDS011;47650;49.848;9.620;2024-02-14T00:18:11;13.13;;;9.10;;
61741;SDS011;47650;49.848;9.620;2024-02-14T00:20:36;11.63;;;8.57;;
61741;SDS011;47650;49.848;9.620;2024-02-14T00:23:02;11.95;;;8.18;;
61741;SDS011;47650;49.848;9.620;2024-02-14T00:25:29;11.77;;;8.40;;
61741;SDS011;47650;49.848;9.620;2024-02-14T00:27:55;11.85;;;8.85;;
61741;SDS011;47650;49.848;9.620;2024-02-14T00:30:21;12.35;;;8.93;;
61741;SDS011;47650;49.848;9.620;2024-02-14T00:32:48;12.85;;;8.82;;
61741;SDS011;47650;49.848;9.620;2024-02-14T00:35:13;13.80;;;8.30;;
61741;SDS011;47650;49.848;9.620;2024-02-14T00:40:07;15.88;;;10.40;;
61741;SDS011;47650;49.848;9.620;2024-02-14T00:42:33;13.15;;;9.23;;
61741;SDS011;47650;49.848;9.620;2024-02-14T00:45:05;14.65;;;10.10;;
61741;SDS011;47650;49.848;9.620;2024-02-14T00:47:33;12.88;;;8.45;;
61741;SDS011;47650;49.848;9.620;2024-02-14T00:50:02;13.63;;;8.80;;
61741;SDS011;47650;49.848;9.620;2024-02-14T00:52:29;15.25;;;9.90;;
61741;SDS011;47650;49.848;9.620;2024-02-14T00:54:57;17.98;;;11.23;;
61741;SDS011;47650;49.848;9.620;2024-02-14T00:57:28;16.63;;;10.43;;
61741;SDS011;47650;49.848;9.620;2024-02-14T00:59:54;18.30;;;10.20;;
61741;SDS011;47650;49.848;9.620;2024-02-14T01:02:21;14.55;;;8.70;;
61741;SDS011;47650;49.848;9.620;2024-02-14T01:04:47;13.05;;;9.05;;
61741;SDS011;47650;49.848;9.620;2024-02-14T01:07:13;10.73;;;7.63;;
61741;SDS011;47650;49.848;9.620;2024-02-14T01:09:38;12.75;;;7.82;;
61741;SDS011;47650;49.848;9.620;2024-02-14T01:12:04;9.40;;;7.10;;
61741;SDS011;47650;49.848;9.620;2024-02-14T01:14:29;13.57;;;8.05;;
61741;SDS011;47650;49.848;9.620;2024-02-14T01:16:57;9.82;;;6.40;;
61741;SDS011;47650;49.848;9.620;2024-02-14T01:19:22;11.10;;;7.82;;
61741;SDS011;47650;49.848;9.620;2024-02-14T01:21:51;12.05;;;8.23;;
61741;SDS011;47650;49.848;9.620;2024-02-14T01:24:18;10.35;;;7.32;;
61741;SDS011;47650;49.848;9.620;2024-02-14T01:26:45;10.43;;;7.30;;
61741;SDS011;47650;49.848;9.620;2024-02-14T01:29:11;13.80;;;7.38;;
61741;SDS011;47650;49.848;9.620;2024-02-14T01:31:37;10.05;;;7.05;;
61741;SDS011;47650;49.848;9.620;2024-02-14T01:34:04;12.63;;;8.43;;
61741;SDS011;47650;49.848;9.620;2024-02-14T01:36:30;12.88;;;7.55;;
61741;SDS011;47650;49.848;9.620;2024-02-14T01:38:56;10.10;;;6.45;;
61741;SDS011;47650;49.848;9.620;2024-02-14T01:41:21;12.30;;;7.60;;
61741;SDS011;47650;49.848;9.620;2024-02-14T01:43:47;13.00;;;6.93;;
61741;SDS011;47650;49.848;9.620;2024-02-14T01:46:13;9.73;;;7.22;;
61741;SDS011;47650;49.848;9.620;2024-02-14T01:48:39;8.80;;;6.65;;
61741;SDS011;47650;49.848;9.620;2024-02-14T01:51:08;10.40;;;7.05;;
61741;SDS011;47650;49.848;9.620;2024-02-14T01:53:37;8.60;;;6.25;;
61741;SDS011;47650;49.848;9.620;2024-02-14T01:56:03;7.72;;;5.25;;
61741;SDS011;47650;49.848;9.620;2024-02-14T01:58:32;8.20;;;5.15;;
61741;SDS011;47650;49.848;9.620;2024-02-14T02:01:04;8.90;;;5.97;;
61741;SDS011;47650;49.848;9.620;2024-02-14T02:03:30;6.60;;;5.00;;
61741;SDS011;47650;49.848;9.620;2024-02-14T02:05:58;7.22;;;5.05;;
61741;SDS011;47650;49.848;9.620;2024-02-14T02:08:25;6.70;;;5.75;;
61741;SDS011;47650;49.848;9.620;2024-02-14T02:10:50;6.75;;;4.90;;
61741;SDS011;47650;49.848;9.620;2024-02-14T02:13:16;9.30;;;5.07;;
61741;SDS011;47650;49.848;9.620;2024-02-14T02:15:42;8.57;;;6.05;;
61741;SDS011;47650;49.848;9.620;2024-02-14T02:18:13;8.10;;;6.40;;
61741;SDS011;47650;49.848;9.620;2024-02-14T02:20:38;9.35;;;5.90;;
61741;SDS011;47650;49.848;9.620;2024-02-14T02:23:05;7.97;;;5.63;;
61741;SDS011;47650;49.848;9.620;2024-02-14T02:25:30;9.13;;;5.70;;
61741;SDS011;47650;49.848;9.620;2024-02-14T02:27:56;6.45;;;4.88;;
61741;SDS011;47650;49.848;9.620;2024-02-14T02:30:22;7.03;;;4.30;;
61741;SDS011;47650;49.848;9.620;2024-02-14T02:32:49;7.32;;;4.70;;
61741;SDS011;47650;49.848;9.620;2024-02-14T02:35:16;8.68;;;4.95;;
61741;SDS011;47650;49.848;9.620;2024-02-14T02:37:41;7.47;;;4.40;;
61741;SDS011;47650;49.848;9.620;2024-02-14T02:40:09;9.18;;;4.82;;
61741;SDS011;47650;49.848;9.620;2024-02-14T02:42:37;7.68;;;4.43;;
61741;SDS011;47650;49.848;9.620;2024-02-14T02:45:03;6.97;;;4.65;;
61741;SDS011;47650;49.848;9.620;2024-02-14T02:47:31;6.68;;;4.85;;
61741;SDS011;47650;49.848;9.620;2024-02-14T02:49:57;7.38;;;4.88;;
61741;SDS011;47650;49.848;9.620;2024-02-14T02:52:28;8.90;;;5.40;;
61741;SDS011;47650;49.848;9.620;2024-02-14T02:54:54;5.47;;;4.50;;
61741;SDS011;47650;49.848;9.620;2024-02-14T02:57:21;7.72;;;4.85;;
61741;SDS011;47650;49.848;9.620;2024-02-14T02:59:47;7.30;;;4.72;;
61741;SDS011;47650;49.848;9.620;2024-02-14T03:02:13;8.07;;;5.43;;
61741;SDS011;47650;49.848;9.620;2024-02-14T03:04:41;8.88;;;6.03;;
61741;SDS011;47650;49.848;9.620;2024-02-14T03:07:08;9.32;;;6.13;;
61741;SDS011;47650;49.848;9.620;2024-02-14T03:09:34;8.70;;;5.82;;
61741;SDS011;47650;49.848;9.620;2024-02-14T03:12:01;12.38;;;7.55;;
61741;SDS011;47650;49.848;9.620;2024-02-14T03:14:35;10.20;;;6.10;;
61741;SDS011;47650;49.848;9.620;2024-02-14T03:17:01;10.57;;;6.75;;
61741;SDS011;47650;49.848;9.620;2024-02-14T03:19:27;9.55;;;6.20;;
61741;SDS011;47650;49.848;9.620;2024-02-14T03:21:53;9.00;;;6.35;;
61741;SDS011;47650;49.848;9.620;2024-02-14T03:24:22;10.75;;;6.65;;
61741;SDS011;47650;49.848;9.620;2024-02-14T03:26:50;11.70;;;6.78;;
61741;SDS011;47650;49.848;9.620;2024-02-14T03:29:16;11.25;;;6.70;;
61741;SDS011;47650;49.848;9.620;2024-02-14T03:31:44;11.10;;;6.53;;
61741;SDS011;47650;49.848;9.620;2024-02-14T03:34:09;9.95;;;6.13;;
61741;SDS011;47650;49.848;9.620;2024-02-14T03:36:36;8.68;;;6.70;;
61741;SDS011;47650;49.848;9.620;2024-02-14T03:39:02;10.60;;;6.82;;
61741;SDS011;47650;49.848;9.620;2024-02-14T03:41:30;11.77;;;7.28;;
61741;SDS011;47650;49.848;9.620;2024-02-14T03:43:56;9.85;;;6.78;;
61741;SDS011;47650;49.848;9.620;2024-02-14T03:46:25;12.13;;;7.18;;
61741;SDS011;47650;49.848;9.620;2024-02-14T03:48:54;9.27;;;7.13;;
61741;SDS011;47650;49.848;9.620;2024-02-14T03:51:19;11.57;;;7.30;;
61741;SDS011;47650;49.848;9.620;2024-02-14T03:53:46;9.80;;;6.38;;
61741;SDS011;47650;49.848;9.620;2024-02-14T03:56:11;10.73;;;5.90;;
61741;SDS011;47650;49.848;9.620;2024-02-14T03:58:39;8.35;;;6.68;;
61741;SDS011;47650;49.848;9.620;2024-02-14T04:01:04;8.88;;;6.68;;
61741;SDS011;47650;49.848;9.620;2024-02-14T04:03:30;8.48;;;5.78;;
61741;SDS011;47650;49.848;9.620;2024-02-14T04:06:02;8.95;;;6.40;;
61741;SDS011;47650;49.848;9.620;2024-02-14T04:08:27;8.43;;;6.15;;
61741;SDS011;47650;49.848;9.620;2024-02-14T04:10:56;7.00;;;5.05;;
61741;SDS011;47650;49.848;9.620;2024-02-14T04:13:22;8.50;;;5.80;;
61741;SDS011;47650;49.848;9.620;2024-02-14T04:15:47;7.13;;;5.55;;
61741;SDS011;47650;49.848;9.620;2024-02-14T04:18:12;8.95;;;5.40;;
61741;SDS011;47650;49.848;9.620;2024-02-14T04:20:39;8.77;;;5.78;;
61741;SDS011;47650;49.848;9.620;2024-02-14T04:23:06;7.50;;;5.28;;
61741;SDS011;47650;49.848;9.620;2024-02-14T04:25:32;6.85;;;5.05;;
61741;SDS011;47650;49.848;9.620;2024-02-14T04:27:58;6.00;;;4.80;;
61741;SDS011;47650;49.848;9.620;2024-02-14T04:30:24;8.38;;;5.53;;
61741;SDS011;47650;49.848;9.620;2024-02-14T04:32:50;10.32;;;5.82;;
61741;SDS011;47650;49.848;9.620;2024-02-14T04:35:16;9.70;;;6.00;;
61741;SDS011;47650;49.848;9.620;2024-02-14T04:37:43;11.20;;;5.97;;
61741;SDS011;47650;49.848;9.620;2024-02-14T04:40:11;6.80;;;4.50;;
61741;SDS011;47650;49.848;9.620;2024-02-14T04:42:39;6.65;;;4.80;;
61741;SDS011;47650;49.848;9.620;2024-02-14T04:45:05;8.90;;;5.30;;
61741;SDS011;47650;49.848;9.620;2024-02-14T04:47:33;6.82;;;4.55;;
61741;SDS011;47650;49.848;9.620;2024-02-14T04:49:59;6.57;;;3.55;;
61741;SDS011;47650;49.848;9.620;2024-02-14T04:52:27;7.50;;;4.63;;
61741;SDS011;47650;49.848;9.620;2024-02-14T04:54:53;8.35;;;4.68;;
61741;SDS011;47650;49.848;9.620;2024-02-14T04:57:18;6.70;;;3.78;;
61741;SDS011;47650;49.848;9.620;2024-02-14T04:59:45;7.18;;;4.13;;
61741;SDS011;47650;49.848;9.620;2024-02-14T05:02:10;7.05;;;4.18;;
61741;SDS011;47650;49.848;9.620;2024-02-14T05:04:35;8.73;;;4.60;;
61741;SDS011;47650;49.848;9.620;2024-02-14T05:07:03;7.35;;;4.53;;
61741;SDS011;47650;49.848;9.620;2024-02-14T05:09:30;7.90;;;4.85;;
61741;SDS011;47650;49.848;9.620;2024-02-14T05:11:55;8.75;;;4.82;;
61741;SDS011;47650;49.848;9.620;2024-02-14T05:14:22;7.82;;;4.53;;
61741;SDS011;47650;49.848;9.620;2024-02-14T05:16:47;6.72;;;4.25;;
61741;SDS011;47650;49.848;9.620;2024-02-14T05:19:14;8.10;;;4.72;;
61741;SDS011;47650;49.848;9.620;2024-02-14T05:21:40;11.35;;;4.28;;
61741;SDS011;47650;49.848;9.620;2024-02-14T05:24:05;8.48;;;4.70;;
61741;SDS011;47650;49.848;9.620;2024-02-14T05:26:31;6.85;;;3.90;;
61741;SDS011;47650;49.848;9.620;2024-02-14T05:28:57;7.05;;;3.83;;
61741;SDS011;47650;49.848;9.620;2024-02-14T05:31:22;7.10;;;4.93;;
61741;SDS011;47650;49.848;9.620;2024-02-14T05:33:49;7.80;;;4.00;;
61741;SDS011;47650;49.848;9.620;2024-02-14T05:36:22;5.78;;;3.35;;
61741;SDS011;47650;49.848;9.620;2024-02-14T05:38:51;5.72;;;3.42;;
61741;SDS011;47650;49.848;9.620;2024-02-14T05:41:17;5.70;;;3.22;;
61741;SDS011;47650;49.848;9.620;2024-02-14T05:43:44;7.20;;;3.60;;
61741;SDS011;47650;49.848;9.620;2024-02-14T05:46:17;7.00;;;3.45;;
61741;SDS011;47650;49.848;9.620;2024-02-14T05:48:43;7.93;;;3.05;;
61741;SDS011;47650;49.848;9.620;2024-02-14T05:51:08;10.13;;;3.28;;
61741;SDS011;47650;49.848;9.620;2024-02-14T05:53:34;6.03;;;2.60;;
61741;SDS011;47650;49.848;9.620;2024-02-14T05:56:00;4.60;;;2.58;;
61741;SDS011;47650;49.848;9.620;2024-02-14T05:58:26;5.03;;;2.58;;
61741;SDS011;47650;49.848;9.620;2024-02-14T06:00:52;7.00;;;2.83;;
61741;SDS011;47650;49.848;9.620;2024-02-14T06:03:17;8.85;;;3.45;;
61741;SDS011;47650;49.848;9.620;2024-02-14T06:05:42;5.88;;;2.85;;
61741;SDS011;47650;49.848;9.620;2024-02-14T06:08:08;8.15;;;3.13;;
61741;SDS011;47650;49.848;9.620;2024-02-14T06:10:35;5.07;;;2.63;;
61741;SDS011;47650;49.848;9.620;2024-02-14T06:13:01;5.45;;;2.67;;
61741;SDS011;47650;49.848;9.620;2024-02-14T06:17:55;5.45;;;2.67;;
61741;SDS011;47650;49.848;9.620;2024-02-14T06:20:21;5.22;;;2.60;;
61741;SDS011;47650;49.848;9.620;2024-02-14T06:22:47;4.55;;;2.50;;
61741;SDS011;47650;49.848;9.620;2024-02-14T06:25:12;6.20;;;2.70;;
61741;SDS011;47650;49.848;9.620;2024-02-14T06:27:38;6.93;;;2.67;;
61741;SDS011;47650;49.848;9.620;2024-02-14T06:30:05;4.88;;;2.58;;
61741;SDS011;47650;49.848;9.620;2024-02-14T06:32:32;6.47;;;2.70;;
61741;SDS011;47650;49.848;9.620;2024-02-14T06:34:58;8.63;;;3.78;;
61741;SDS011;47650;49.848;9.620;2024-02-14T06:37:24;8.68;;;2.70;;
61741;SDS011;47650;49.848;9.620;2024-02-14T06:39:49;5.78;;;2.70;;
61741;SDS011;47650;49.848;9.620;2024-02-14T06:42:16;4.25;;;2.40;;
61741;SDS011;47650;49.848;9.620;2024-02-14T06:44:42;7.53;;;2.70;;
61741;SDS011;47650;49.848;9.620;2024-02-14T06:47:07;6.63;;;2.70;;
61741;SDS011;47650;49.848;9.620;2024-02-14T06:49:32;5.50;;;2.83;;
61741;SDS011;47650;49.848;9.620;2024-02-14T06:51:58;4.40;;;2.53;;
61741;SDS011;47650;49.848;9.620;2024-02-14T06:54:23;5.32;;;3.03;;
61741;SDS011;47650;49.848;9.620;2024-02-14T06:56:49;7.55;;;2.80;;
61741;SDS011;47650;49.848;9.620;2024-02-14T06:59:14;5.75;;;2.60;;
61741;SDS011;47650;49.848;9.620;2024-02-14T07:01:41;6.13;;;2.45;;
61741;SDS011;47650;49.848;9.620;2024-02-14T07:04:12;7.30;;;2.53;;
61741;SDS011;47650;49.848;9.620;2024-02-14T07:06:38;5.35;;;2.30;;
61741;SDS011;47650;49.848;9.620;2024-02-14T07:09:10;8.95;;;3.45;;
61741;SDS011;47650;49.848;9.620;2024-02-14T07:11:36;5.60;;;2.95;;
61741;SDS011;47650;49.848;9.620;2024-02-14T07:14:05;6.68;;;2.47;;
61741;SDS011;47650;49.848;9.620;2024-02-14T07:16:30;4.78;;;2.55;;
61741;SDS011;47650;49.848;9.620;2024-02-14T07:18:56;6.55;;;2.92;;
61741;SDS011;47650;49.848;9.620;2024-02-14T07:21:21;7.53;;;2.88;;
61741;SDS011;47650;49.848;9.620;2024-02-14T07:23:46;6.07;;;2.70;;
61741;SDS011;47650;49.848;9.620;2024-02-14T07:26:12;5.47;;;2.80;;
61741;SDS011;47650;49.848;9.620;2024-02-14T07:28:37;7.28;;;2.85;;
61741;SDS011;47650;49.848;9.620;2024-02-14T07:31:02;5.00;;;2.25;;
61741;SDS011;47650;49.848;9.620;2024-02-14T07:33:29;5.97;;;3.42;;
61741;SDS011;47650;49.848;9.620;2024-02-14T07:35:54;5.97;;;2.63;;
61741;SDS011;47650;49.848;9.620;2024-02-14T07:38:19;6.47;;;2.50;;
61741;SDS011;47650;49.848;9.620;2024-02-14T07:40:45;5.32;;;2.72;;
61741;SDS011;47650;49.848;9.620;2024-02-14T07:43:10;7.78;;;2.63;;
61741;SDS011;47650;49.848;9.620;2024-02-14T07:45:36;4.65;;;2.33;;
61741;SDS011;47650;49.848;9.620;2024-02-14T07:48:02;4.38;;;2.40;;
61741;SDS011;47650;49.848;9.620;2024-02-14T07:50:28;5.97;;;2.95;;
61741;SDS011;47650;49.848;9.620;2024-02-14T07:52:53;4.55;;;2.50;;
61741;SDS011;47650;49.848;9.620;2024-02-14T07:55:18;7.07;;;2.70;;
61741;SDS011;47650;49.848;9.620;2024-02-14T07:57:44;5.93;;;2.30;;
61741;SDS011;47650;49.848;9.620;2024-02-14T08:00:09;4.15;;;2.35;;
61741;SDS011;47650;49.848;9.620;2024-02-14T08:02:35;5.60;;;2.80;;
61741;SDS011;47650;49.848;9.620;2024-02-14T08:05:01;4.90;;;2.08;;
61741;SDS011;47650;49.848;9.620;2024-02-14T08:07:27;3.88;;;2.22;;
61741;SDS011;47650;49.848;9.620;2024-02-14T08:09:54;5.72;;;2.10;;
61741;SDS011;47650;49.848;9.620;2024-02-14T08:12:20;4.97;;;2.10;;
61741;SDS011;47650;49.848;9.620;2024-02-14T08:14:46;5.53;;;1.85;;
61741;SDS011;47650;49.848;9.620;2024-02-14T08:17:12;4.90;;;1.98;;
61741;SDS011;47650;49.848;9.620;2024-02-14T08:19:39;5.25;;;2.30;;
61741;SDS011;47650;49.848;9.620;2024-02-14T08:22:04;5.68;;;2.50;;
61741;SDS011;47650;49.848;9.620;2024-02-14T08:24:30;5.78;;;2.33;;
61741;SDS011;47650;49.848;9.620;2024-02-14T08:26:56;3.40;;;1.95;;
61741;SDS011;47650;49.848;9.620;2024-02-14T08:29:21;5.05;;;2.00;;
61741;SDS011;47650;49.848;9.620;2024-02-14T08:31:49;3.15;;;1.67;;
61741;SDS011;47650;49.848;9.620;2024-02-14T08:34:14;6.28;;;2.10;;
61741;SDS011;47650;49.848;9.620;2024-02-14T08:36:41;3.28;;;1.95;;
61741;SDS011;47650;49.848;9.620;2024-02-14T08:39:07;5.43;;;2.10;;
61741;SDS011;47650;49.848;9.620;2024-02-14T08:41:32;3.05;;;1.95;;
61741;SDS011;47650;49.848;9.620;2024-02-14T08:43:58;4.07;;;1.75;;
61741;SDS011;47650;49.848;9.620;2024-02-14T08:46:23;6.10;;;2.20;;
61741;SDS011;47650;49.848;9.620;2024-02-14T08:48:50;4.53;;;1.73;;
61741;SDS011;47650;49.848;9.620;2024-02-14T08:51:16;3.28;;;1.60;;
61741;SDS011;47650;49.848;9.620;2024-02-14T08:53:45;7.03;;;1.85;;
61741;SDS011;47650;49.848;9.620;2024-02-14T08:56:10;4.97;;;2.28;;
61741;SDS011;47650;49.848;9.620;2024-02-14T08:58:37;4.82;;;1.90;;
61741;SDS011;47650;49.848;9.620;2024-02-14T09:01:02;5.00;;;2.20;;
61741;SDS011;47650;49.848;9.620;2024-02-14T09:03:36;4.30;;;2.20;;
61741;SDS011;47650;49.848;9.620;2024-02-14T09:06:04;5.80;;;2.17;;
61741;SDS011;47650;49.848;9.620;2024-02-14T09:08:29;4.38;;;2.00;;
61741;SDS011;47650;49.848;9.620;2024-02-14T09:11:07;4.18;;;1.90;;
61741;SDS011;47650;49.848;9.620;2024-02-14T09:13:33;4.72;;;1.88;;
61741;SDS011;47650;49.848;9.620;2024-02-14T09:15:59;4.10;;;1.65;;
61741;SDS011;47650;49.848;9.620;2024-02-14T09:18:26;4.03;;;1.67;;
61741;SDS011;47650;49.848;9.620;2024-02-14T09:20:53;3.72;;;1.92;;
61741;SDS011;47650;49.848;9.620;2024-02-14T09:23:20;4.47;;;1.73;;
61741;SDS011;47650;49.848;9.620;2024-02-14T09:25:47;3.38;;;1.80;;
61741;SDS011;47650;49.848;9.620;2024-02-14T09:28:15;4.53;;;1.60;;
61741;SDS011;47650;49.848;9.620;2024-02-14T09:30:42;4.30;;;1.90;;
61741;SDS011;47650;49.848;9.620;2024-02-14T09:33:07;3.28;;;1.60;;
61741;SDS011;47650;49.848;9.620;2024-02-14T09:35:32;2.67;;;1.42;;
61741;SDS011;47650;49.848;9.620;2024-02-14T09:37:58;5.55;;;1.70;;
61741;SDS011;47650;49.848;9.620;2024-02-14T09:40:30;5.22;;;1.70;;
61741;SDS011;47650;49.848;9.620;2024-02-14T09:42:56;3.17;;;1.75;;
61741;SDS011;47650;49.848;9.620;2024-02-14T09:45:25;3.45;;;1.40;;
61741;SDS011;47650;49.848;9.620;2024-02-14T09:47:53;3.50;;;1.50;;
61741;SDS011;47650;49.848;9.620;2024-02-14T09:50:21;1.98;;;1.50;;
61741;SDS011;47650;49.848;9.620;2024-02-14T09:52:49;2.70;;;1.40;;
61741;SDS011;47650;49.848;9.620;2024-02-14T09:55:18;1.27;;;0.90;;
61741;SDS011;47650;49.848;9.620;2024-02-14T09:57:44;3.13;;;1.63;;
61741;SDS011;47650;49.848;9.620;2024-02-14T10:00:18;4.22;;;1.73;;
61741;SDS011;47650;49.848;9.620;2024-02-14T10:05:19;3.05;;;1.40;;
61741;SDS011;47650;49.848;9.620;2024-02-14T10:07:50;4.57;;;1.67;;
61741;SDS011;47650;49.848;9.620;2024-02-14T10:10:15;4.47;;;1.70;;
61741;SDS011;47650;49.848;9.620;2024-02-14T10:12:41;2.92;;;1.45;;
61741;SDS011;47650;49.848;9.620;2024-02-14T10:15:08;3.42;;;1.80;;
61741;SDS011;47650;49.848;9.620;2024-02-14T10:17:33;1.25;;;0.98;;
61741;SDS011;47650;49.848;9.620;2024-02-14T10:20:00;3.83;;;1.48;;
61741;SDS011;47650;49.848;9.620;2024-02-14T10:22:36;3.08;;;1.30;;
61741;SDS011;47650;49.848;9.620;2024-02-14T10:25:04;1.67;;;1.27;;
61741;SDS011;47650;49.848;9.620;2024-02-14T10:27:37;3.97;;;1.60;;
61741;SDS011;47650;49.848;9.620;2024-02-14T10:32:45;2.58;;;1.33;;
61741;SDS011;47650;49.848;9.620;2024-02-14T10:35:14;3.15;;;1.42;;
61741;SDS011;47650;49.848;9.620;2024-02-14T10:37:40;1.88;;;1.40;;
61741;SDS011;47650;49.848;9.620;2024-02-14T10:40:07;2.80;;;1.40;;
61741;SDS011;47650;49.848;9.620;2024-02-14T10:42:36;1.90;;;1.17;;
61741;SDS011;47650;49.848;9.620;2024-02-14T10:45:02;2.50;;;1.60;;
61741;SDS011;47650;49.848;9.620;2024-02-14T10:47:30;2.17;;;1.60;;
61741;SDS011;47650;49.848;9.620;2024-02-14T10:49:57;3.03;;;2.15;;
61741;SDS011;47650;49.848;9.620;2024-02-14T10:52:29;2.75;;;1.20;;
61741;SDS011;47650;49.848;9.620;2024-02-14T10:54:56;2.85;;;1.20;;
61741;SDS011;47650;49.848;9.620;2024-02-14T10:57:22;3.05;;;1.50;;
61741;SDS011;47650;49.848;9.620;2024-02-14T10:59:49;3.17;;;1.63;;
61741;SDS011;47650;49.848;9.620;2024-02-14T11:02:22;2.05;;;1.30;;
61741;SDS011;47650;49.848;9.620;2024-02-14T11:04:48;3.50;;;1.67;;
61741;SDS011;47650;49.848;9.620;2024-02-14T11:07:18;2.78;;;1.55;;
61741;SDS011;47650;49.848;9.620;2024-02-14T11:09:44;4.25;;;2.00;;
61741;SDS011;47650;49.848;9.620;2024-02-14T11:12:11;2.35;;;1.50;;
61741;SDS011;47650;49.848;9.620;2024-02-14T11:14:38;2.50;;;1.48;;
61741;SDS011;47650;49.848;9.620;2024-02-14T11:17:10;2.38;;;1.20;;
61741;SDS011;47650;49.848;9.620;2024-02-14T11:19:35;3.65;;;1.50;;
61741;SDS011;47650;49.848;9.620;2024-02-14T11:22:10;5.18;;;1.33;;
61741;SDS011;47650;49.848;9.620;2024-02-14T11:24:46;2.67;;;1.55;;
61741;SDS011;47650;49.848;9.620;2024-02-14T11:27:12;7.38;;;1.50;;
61741;SDS011;47650;49.848;9.620;2024-02-14T11:29:40;2.13;;;1.38;;
61741;SDS011;47650;49.848;9.620;2024-02-14T11:32:06;3.53;;;1.23;;
61741;SDS011;47650;49.848;9.620;2024-02-14T11:37:32;2.10;;;1.25;;
61741;SDS011;47650;49.848;9.620;2024-02-14T11:39:57;2.70;;;1.38;;
61741;SDS011;47650;49.848;9.620;2024-02-14T11:42:23;2.05;;;1.10;;
61741;SDS011;47650;49.848;9.620;2024-02-14T11:44:49;2.72;;;1.67;;
61741;SDS011;47650;49.848;9.620;2024-02-14T11:47:14;3.45;;;1.40;;
61741;SDS011;47650;49.848;9.620;2024-02-14T11:49:41;2.65;;;1.20;;
61741;SDS011;47650;49.848;9.620;2024-02-14T11:52:09;2.80;;;1.35;;
61741;SDS011;47650;49.848;9.620;2024-02-14T11:54:36;2.03;;;1.30;;
61741;SDS011;47650;49.848;9.620;2024-02-14T11:57:02;1.95;;;1.17;;
61741;SDS011;47650;49.848;9.620;2024-02-14T11:59:28;1.88;;;1.08;;
61741;SDS011;47650;49.848;9.620;2024-02-14T12:01:55;1.40;;;1.10;;
61741;SDS011;47650;49.848;9.620;2024-02-14T12:04:23;2.08;;;1.10;;
61741;SDS011;47650;49.848;9.620;2024-02-14T12:06:50;1.42;;;1.00;;
61741;SDS011;47650;49.848;9.620;2024-02-14T12:09:15;1.83;;;1.30;;
61741;SDS011;47650;49.848;9.620;2024-02-14T12:11:41;1.90;;;1.23;;
61741;SDS011;47650;49.848;9.620;2024-02-14T12:14:11;1.85;;;1.00;;
61741;SDS011;47650;49.848;9.620;2024-02-14T12:16:45;2.33;;;1.33;;
61741;SDS011;47650;49.848;9.620;2024-02-14T12:19:14;1.83;;;1.08;;
61741;SDS011;47650;49.848;9.620;2024-02-14T12:21:41;1.63;;;1.02;;
61741;SDS011;47650;49.848;9.620;2024-02-14T12:24:08;2.50;;;1.58;;
61741;SDS011;47650;49.848;9.620;2024-02-14T12:26:35;1.90;;;1.13;;
61741;SDS011;47650;49.848;9.620;2024-02-14T12:29:07;1.88;;;1.30;;
61741;SDS011;47650;49.848;9.620;2024-02-14T12:31:33;2.70;;;1.27;;
61741;SDS011;47650;49.848;9.620;2024-02-14T12:33:59;2.80;;;1.27;;
61741;SDS011;47650;49.848;9.620;2024-02-14T12:36:28;5.00;;;1.70;;
61741;SDS011;47650;49.848;9.620;2024-02-14T12:38:54;2.80;;;1.23;;
61741;SDS011;47650;49.848;9.620;2024-02-14T12:41:20;2.90;;;1.42;;
61741;SDS011;47650;49.848;9.620;2024-02-14T12:43:46;1.67;;;1.20;;
61741;SDS011;47650;49.848;9.620;2024-02-14T12:46:14;5.72;;;1.92;;
61741;SDS011;47650;49.848;9.620;2024-02-14T12:48:40;3.88;;;1.75;;
61741;SDS011;47650;49.848;9.620;2024-02-14T12:51:05;2.10;;;1.45;;
61741;SDS011;47650;49.848;9.620;2024-02-14T12:53:30;3.67;;;1.73;;
61741;SDS011;47650;49.848;9.620;2024-02-14T12:55:58;3.20;;;1.42;;
61741;SDS011;47650;49.848;9.620;2024-02-14T12:58:23;2.25;;;1.55;;
61741;SDS011;47650;49.848;9.620;2024-02-14T13:00:49;2.10;;;1.40;;
61741;SDS011;47650;49.848;9.620;2024-02-14T13:03:14;2.78;;;1.50;;
61741;SDS011;47650;49.848;9.620;2024-02-14T13:05:41;4.75;;;1.73;;
61741;SDS011;47650;49.848;9.620;2024-02-14T13:08:13;3.85;;;1.90;;
61741;SDS011;47650;49.848;9.620;2024-02-14T13:10:48;2.55;;;1.50;;
61741;SDS011;47650;49.848;9.620;2024-02-14T13:13:14;5.07;;;1.88;;
61741;SDS011;47650;49.848;9.620;2024-02-14T13:15:46;3.50;;;1.88;;
61741;SDS011;47650;49.848;9.620;2024-02-14T13:18:11;6.47;;;1.83;;
61741;SDS011;47650;49.848;9.620;2024-02-14T13:20:38;3.17;;;1.55;;
61741;SDS011;47650;49.848;9.620;2024-02-14T13:23:06;2.63;;;1.77;;
61741;SDS011;47650;49.848;9.620;2024-02-14T13:25:35;1.98;;;1.42;;
61741;SDS011;47650;49.848;9.620;2024-02-14T13:28:03;2.58;;;1.70;;
61741;SDS011;47650;49.848;9.620;2024-02-14T13:30:39;2.85;;;1.50;;
61741;SDS011;47650;49.848;9.620;2024-02-14T13:33:05;4.30;;;1.70;;
61741;SDS011;47650;49.848;9.620;2024-02-14T13:35:30;2.72;;;1.75;;
61741;SDS011;47650;49.848;9.620;2024-02-14T13:38:02;3.13;;;1.60;;
61741;SDS011;47650;49.848;9.620;2024-02-14T13:40:28;4.55;;;2.15;;
61741;SDS011;47650;49.848;9.620;2024-02-14T13:42:55;3.08;;;1.77;;
61741;SDS011;47650;49.848;9.620;2024-02-14T13:45:20;2.72;;;1.35;;
61741;SDS011;47650;49.848;9.620;2024-02-14T13:47:49;4.22;;;1.55;;
61741;SDS011;47650;49.848;9.620;2024-02-14T13:50:16;3.60;;;1.85;;
61741;SDS011;47650;49.848;9.620;2024-02-14T13:52:47;3.55;;;1.60;;
61741;SDS011;47650;49.848;9.620;2024-02-14T13:55:14;3.00;;;1.50;;
61741;SDS011;47650;49.848;9.620;2024-02-14T13:57:39;3.08;;;1.90;;
61741;SDS011;47650;49.848;9.620;2024-02-14T14:00:05;3.40;;;1.60;;
61741;SDS011;47650;49.848;9.620;2024-02-14T14:02:36;4.00;;;1.88;;
61741;SDS011;47650;49.848;9.620;2024-02-14T14:05:08;3.65;;;1.92;;
61741;SDS011;47650;49.848;9.620;2024-02-14T14:07:38;3.42;;;1.90;;
61741;SDS011;47650;49.848;9.620;2024-02-14T14:10:05;3.20;;;1.90;;
61741;SDS011;47650;49.848;9.620;2024-02-14T14:12:32;3.67;;;1.90;;
61741;SDS011;47650;49.848;9.620;2024-02-14T14:15:01;2.75;;;1.65;;
61741;SDS011;47650;49.848;9.620;2024-02-14T14:17:29;3.30;;;1.55;;
61741;SDS011;47650;49.848;9.620;2024-02-14T14:20:13;3.25;;;1.85;;
61741;SDS011;47650;49.848;9.620;2024-02-14T14:22:40;3.25;;;1.48;;
61741;SDS011;47650;49.848;9.620;2024-02-14T14:25:06;4.25;;;2.00;;
61741;SDS011;47650;49.848;9.620;2024-02-14T14:27:33;3.80;;;1.83;;
61741;SDS011;47650;49.848;9.620;2024-02-14T14:29:58;4.22;;;1.60;;
61741;SDS011;47650;49.848;9.620;2024-02-14T14:32:24;3.30;;;1.52;;
61741;SDS011;47650;49.848;9.620;2024-02-14T14:34:58;2.97;;;1.65;;
61741;SDS011;47650;49.848;9.620;2024-02-14T14:37:24;3.17;;;1.77;;
61741;SDS011;47650;49.848;9.620;2024-02-14T14:39:49;4.90;;;2.17;;
61741;SDS011;47650;49.848;9.620;2024-02-14T14:42:14;2.97;;;1.98;;
61741;SDS011;47650;49.848;9.620;2024-02-14T14:44:40;4.88;;;2.08;;
61741;SDS011;47650;49.848;9.620;2024-02-14T14:47:06;3.53;;;1.70;;
61741;SDS011;47650;49.848;9.620;2024-02-14T14:49:32;4.30;;;1.98;;
61741;SDS011;47650;49.848;9.620;2024-02-14T14:52:03;3.63;;;1.75;;
61741;SDS011;47650;49.848;9.620;2024-02-14T14:54:31;4.82;;;2.03;;
61741;SDS011;47650;49.848;9.620;2024-02-14T14:56:57;5.55;;;3.63;;